sensor_id;sensor_type;location;lat;lon;timestamp;P1;durP1;ratioP1;P2;durP2;ratioP2
17398;SDS011;8817;48.170;8.592;2023-06-26T00:00:07;16.50;;;15.13;;
17398;SDS011;8817;48.170;8.592;2023-06-26T00:02:36;16.73;;;15.27;;
17398;SDS011;8817;48.170;8.592;2023-06-26T00:05:03;16.58;;;15.18;;
17398;SDS011;8817;48.170;8.592;2023-06-26T00:07:30;16.90;;;15.50;;
17398;SDS011;8817;48.170;8.592;2023-06-26T00:10:01;16.40;;;15.10;;
17398;SDS011;8817;48.170;8.592;2023-06-26T00:12:28;16.60;;;15.30;;
17398;SDS011;8817;48.170;8.592;2023-06-26T00:14:56;16.88;;;15.48;;
17398;SDS011;8817;48.170;8.592;2023-06-26T00:17:23;17.25;;;15.73;;
17398;SDS011;8817;48.170;8.592;2023-06-26T00:19:50;16.92;;;15.52;;
17398;SDS011;8817;48.170;8.592;2023-06-26T00:22:17;16.55;;;15.15;;
17398;SDS011;8817;48.170;8.592;2023-06-26T00:24:44;16.50;;;15.23;;
17398;SDS011;8817;48.170;8.592;2023-06-26T00:27:13;16.73;;;15.32;;
17398;SDS011;8817;48.170;8.592;2023-06-26T00:29:39;17.42;;;15.82;;
17398;SDS011;8817;48.170;8.592;2023-06-26T00:32:06;16.55;;;15.25;;
17398;SDS011;8817;48.170;8.592;2023-06-26T00:34:33;16.83;;;15.43;;
17398;SDS011;8817;48.170;8.592;2023-06-26T00:37:01;16.52;;;15.07;;
17398;SDS011;8817;48.170;8.592;2023-06-26T00:39:28;16.80;;;15.50;;
17398;SDS011;8817;48.170;8.592;2023-06-26T00:41:54;17.20;;;15.80;;
17398;SDS011;8817;48.170;8.592;2023-06-26T00:44:23;16.90;;;15.50;;
17398;SDS011;8817;48.170;8.592;2023-06-26T00:46:49;16.88;;;15.57;;
17398;SDS011;8817;48.170;8.592;2023-06-26T00:49:17;17.30;;;15.80;;
17398;SDS011;8817;48.170;8.592;2023-06-26T00:51:44;17.73;;;16.13;;
17398;SDS011;8817;48.170;8.592;2023-06-26T00:54:11;17.80;;;15.98;;
17398;SDS011;8817;48.170;8.592;2023-06-26T00:56:41;17.48;;;15.77;;
17398;SDS011;8817;48.170;8.592;2023-06-26T00:59:08;17.38;;;15.88;;
17398;SDS011;8817;48.170;8.592;2023-06-26T01:01:36;17.17;;;15.80;;
17398;SDS011;8817;48.170;8.592;2023-06-26T01:04:03;17.10;;;15.70;;
17398;SDS011;8817;48.170;8.592;2023-06-26T01:06:30;17.63;;;16.13;;
17398;SDS011;8817;48.170;8.592;2023-06-26T01:09:00;17.48;;;15.98;;
17398;SDS011;8817;48.170;8.592;2023-06-26T01:11:27;17.50;;;15.80;;
17398;SDS011;8817;48.170;8.592;2023-06-26T01:13:55;17.73;;;16.02;;
17398;SDS011;8817;48.170;8.592;2023-06-26T01:16:24;17.45;;;15.85;;
17398;SDS011;8817;48.170;8.592;2023-06-26T01:18:53;17.80;;;16.13;;
17398;SDS011;8817;48.170;8.592;2023-06-26T01:21:22;17.52;;;16.05;;
17398;SDS011;8817;48.170;8.592;2023-06-26T01:23:58;18.00;;;16.40;;
17398;SDS011;8817;48.170;8.592;2023-06-26T01:26:32;17.33;;;16.02;;
17398;SDS011;8817;48.170;8.592;2023-06-26T01:29:01;18.08;;;16.20;;
17398;SDS011;8817;48.170;8.592;2023-06-26T01:31:30;17.70;;;16.20;;
17398;SDS011;8817;48.170;8.592;2023-06-26T01:33:58;17.70;;;16.20;;
17398;SDS011;8817;48.170;8.592;2023-06-26T01:36:25;17.85;;;16.25;;
17398;SDS011;8817;48.170;8.592;2023-06-26T01:38:53;17.50;;;16.00;;
17398;SDS011;8817;48.170;8.592;2023-06-26T01:41:20;18.02;;;16.50;;
17398;SDS011;8817;48.170;8.592;2023-06-26T01:43:55;17.75;;;16.17;;
17398;SDS011;8817;48.170;8.592;2023-06-26T01:46:33;17.98;;;16.48;;
17398;SDS011;8817;48.170;8.592;2023-06-26T01:49:07;18.25;;;16.45;;
17398;SDS011;8817;48.170;8.592;2023-06-26T01:51:41;17.30;;;15.90;;
17398;SDS011;8817;48.170;8.592;2023-06-26T01:54:14;17.40;;;16.00;;
17398;SDS011;8817;48.170;8.592;2023-06-26T01:56:45;17.70;;;16.17;;
17398;SDS011;8817;48.170;8.592;2023-06-26T01:59:16;17.73;;;16.13;;
17398;SDS011;8817;48.170;8.592;2023-06-26T02:01:46;18.02;;;16.52;;
17398;SDS011;8817;48.170;8.592;2023-06-26T02:04:13;17.60;;;16.15;;
17398;SDS011;8817;48.170;8.592;2023-06-26T02:06:43;17.42;;;16.05;;
17398;SDS011;8817;48.170;8.592;2023-06-26T02:09:09;17.58;;;16.00;;
17398;SDS011;8817;48.170;8.592;2023-06-26T02:11:36;18.08;;;16.20;;
17398;SDS011;8817;48.170;8.592;2023-06-26T02:14:03;17.50;;;16.10;;
17398;SDS011;8817;48.170;8.592;2023-06-26T02:16:31;17.58;;;16.13;;
17398;SDS011;8817;48.170;8.592;2023-06-26T02:18:58;17.65;;;16.05;;
17398;SDS011;8817;48.170;8.592;2023-06-26T02:21:25;17.88;;;16.42;;
17398;SDS011;8817;48.170;8.592;2023-06-26T02:23:52;17.95;;;16.38;;
17398;SDS011;8817;48.170;8.592;2023-06-26T02:26:19;17.15;;;15.85;;
17398;SDS011;8817;48.170;8.592;2023-06-26T02:28:46;17.75;;;16.30;;
17398;SDS011;8817;48.170;8.592;2023-06-26T02:31:13;17.88;;;16.30;;
17398;SDS011;8817;48.170;8.592;2023-06-26T02:33:42;17.63;;;16.23;;
17398;SDS011;8817;48.170;8.592;2023-06-26T02:36:10;18.40;;;16.77;;
17398;SDS011;8817;48.170;8.592;2023-06-26T02:38:37;18.35;;;16.67;;
17398;SDS011;8817;48.170;8.592;2023-06-26T02:41:04;18.20;;;16.60;;
17398;SDS011;8817;48.170;8.592;2023-06-26T02:43:31;17.92;;;16.40;;
17398;SDS011;8817;48.170;8.592;2023-06-26T02:45:58;17.73;;;16.08;;
17398;SDS011;8817;48.170;8.592;2023-06-26T02:48:25;17.55;;;16.15;;
17398;SDS011;8817;48.170;8.592;2023-06-26T02:50:53;18.13;;;16.48;;
17398;SDS011;8817;48.170;8.592;2023-06-26T02:53:20;17.50;;;16.00;;
17398;SDS011;8817;48.170;8.592;2023-06-26T02:55:47;17.55;;;16.15;;
17398;SDS011;8817;48.170;8.592;2023-06-26T02:58:13;17.70;;;16.20;;
17398;SDS011;8817;48.170;8.592;2023-06-26T03:00:40;17.52;;;16.02;;
17398;SDS011;8817;48.170;8.592;2023-06-26T03:03:08;17.20;;;15.90;;
17398;SDS011;8817;48.170;8.592;2023-06-26T03:05:35;17.77;;;16.27;;
17398;SDS011;8817;48.170;8.592;2023-06-26T03:08:04;17.30;;;16.00;;
17398;SDS011;8817;48.170;8.592;2023-06-26T03:10:31;18.23;;;16.73;;
17398;SDS011;8817;48.170;8.592;2023-06-26T03:12:58;18.13;;;16.63;;
17398;SDS011;8817;48.170;8.592;2023-06-26T03:15:25;17.90;;;16.50;;
17398;SDS011;8817;48.170;8.592;2023-06-26T03:17:52;17.92;;;16.42;;
17398;SDS011;8817;48.170;8.592;2023-06-26T03:20:19;18.05;;;16.58;;
17398;SDS011;8817;48.170;8.592;2023-06-26T03:22:46;18.33;;;16.83;;
17398;SDS011;8817;48.170;8.592;2023-06-26T03:25:15;17.67;;;16.23;;
17398;SDS011;8817;48.170;8.592;2023-06-26T03:27:42;18.60;;;16.90;;
17398;SDS011;8817;48.170;8.592;2023-06-26T03:30:09;17.88;;;16.35;;
17398;SDS011;8817;48.170;8.592;2023-06-26T03:32:37;18.55;;;17.05;;
17398;SDS011;8817;48.170;8.592;2023-06-26T03:35:04;18.60;;;17.00;;
17398;SDS011;8817;48.170;8.592;2023-06-26T03:37:32;18.45;;;16.92;;
17398;SDS011;8817;48.170;8.592;2023-06-26T03:39:59;18.90;;;17.30;;
17398;SDS011;8817;48.170;8.592;2023-06-26T03:42:27;18.42;;;16.92;;
17398;SDS011;8817;48.170;8.592;2023-06-26T03:44:54;18.80;;;17.00;;
17398;SDS011;8817;48.170;8.592;2023-06-26T03:47:21;19.10;;;17.50;;
17398;SDS011;8817;48.170;8.592;2023-06-26T03:49:48;18.20;;;16.70;;
17398;SDS011;8817;48.170;8.592;2023-06-26T03:52:14;19.42;;;17.52;;
17398;SDS011;8817;48.170;8.592;2023-06-26T03:54:41;17.80;;;16.10;;
17398;SDS011;8817;48.170;8.592;2023-06-26T03:57:08;18.40;;;16.92;;
17398;SDS011;8817;48.170;8.592;2023-06-26T03:59:37;18.08;;;16.58;;
17398;SDS011;8817;48.170;8.592;2023-06-26T04:02:04;17.85;;;16.42;;
17398;SDS011;8817;48.170;8.592;2023-06-26T04:04:31;18.13;;;16.60;;
17398;SDS011;8817;48.170;8.592;2023-06-26T04:06:58;18.77;;;17.20;;
17398;SDS011;8817;48.170;8.592;2023-06-26T04:09:25;18.90;;;17.10;;
17398;SDS011;8817;48.170;8.592;2023-06-26T04:11:51;18.83;;;17.13;;
17398;SDS011;8817;48.170;8.592;2023-06-26T04:14:18;18.77;;;17.20;;
17398;SDS011;8817;48.170;8.592;2023-06-26T04:16:46;18.40;;;16.90;;
17398;SDS011;8817;48.170;8.592;2023-06-26T04:19:13;18.63;;;17.02;;
17398;SDS011;8817;48.170;8.592;2023-06-26T04:21:40;18.40;;;16.95;;
17398;SDS011;8817;48.170;8.592;2023-06-26T04:24:07;18.40;;;16.80;;
17398;SDS011;8817;48.170;8.592;2023-06-26T04:26:34;18.30;;;16.80;;
17398;SDS011;8817;48.170;8.592;2023-06-26T04:29:02;18.20;;;16.70;;
17398;SDS011;8817;48.170;8.592;2023-06-26T04:31:29;19.13;;;17.52;;
17398;SDS011;8817;48.170;8.592;2023-06-26T04:33:57;18.35;;;16.92;;
17398;SDS011;8817;48.170;8.592;2023-06-26T04:36:24;18.48;;;17.08;;
17398;SDS011;8817;48.170;8.592;2023-06-26T04:38:53;19.20;;;17.60;;
17398;SDS011;8817;48.170;8.592;2023-06-26T04:41:20;18.70;;;17.20;;
17398;SDS011;8817;48.170;8.592;2023-06-26T04:43:47;18.17;;;16.58;;
17398;SDS011;8817;48.170;8.592;2023-06-26T04:46:14;17.70;;;16.30;;
17398;SDS011;8817;48.170;8.592;2023-06-26T04:48:41;18.08;;;16.67;;
17398;SDS011;8817;48.170;8.592;2023-06-26T04:51:11;18.45;;;16.95;;
17398;SDS011;8817;48.170;8.592;2023-06-26T04:53:38;17.92;;;16.45;;
17398;SDS011;8817;48.170;8.592;2023-06-26T04:56:05;17.75;;;16.15;;
17398;SDS011;8817;48.170;8.592;2023-06-26T04:58:32;17.30;;;15.90;;
17398;SDS011;8817;48.170;8.592;2023-06-26T05:00:58;18.05;;;16.60;;
17398;SDS011;8817;48.170;8.592;2023-06-26T05:03:25;17.92;;;16.48;;
17398;SDS011;8817;48.170;8.592;2023-06-26T05:05:52;17.60;;;16.27;;
17398;SDS011;8817;48.170;8.592;2023-06-26T05:08:22;18.17;;;16.67;;
17398;SDS011;8817;48.170;8.592;2023-06-26T05:10:51;17.40;;;16.10;;
17398;SDS011;8817;48.170;8.592;2023-06-26T05:13:22;18.63;;;17.05;;
17398;SDS011;8817;48.170;8.592;2023-06-26T05:15:49;17.55;;;16.25;;
17398;SDS011;8817;48.170;8.592;2023-06-26T05:18:17;17.50;;;16.10;;
17398;SDS011;8817;48.170;8.592;2023-06-26T05:20:45;17.20;;;15.75;;
17398;SDS011;8817;48.170;8.592;2023-06-26T05:23:12;17.60;;;16.10;;
17398;SDS011;8817;48.170;8.592;2023-06-26T05:25:41;17.50;;;16.10;;
17398;SDS011;8817;48.170;8.592;2023-06-26T05:28:08;17.88;;;16.17;;
17398;SDS011;8817;48.170;8.592;2023-06-26T05:30:37;16.75;;;15.45;;
17398;SDS011;8817;48.170;8.592;2023-06-26T05:33:04;17.65;;;16.15;;
17398;SDS011;8817;48.170;8.592;2023-06-26T05:35:33;17.50;;;16.00;;
17398;SDS011;8817;48.170;8.592;2023-06-26T05:38:02;17.13;;;15.80;;
17398;SDS011;8817;48.170;8.592;2023-06-26T05:40:29;17.30;;;15.93;;
17398;SDS011;8817;48.170;8.592;2023-06-26T05:42:58;17.50;;;16.10;;
17398;SDS011;8817;48.170;8.592;2023-06-26T05:45:25;17.30;;;15.90;;
17398;SDS011;8817;48.170;8.592;2023-06-26T05:47:52;17.42;;;16.02;;
17398;SDS011;8817;48.170;8.592;2023-06-26T05:50:19;17.30;;;15.90;;
17398;SDS011;8817;48.170;8.592;2023-06-26T05:52:46;17.23;;;15.90;;
17398;SDS011;8817;48.170;8.592;2023-06-26T05:55:14;17.50;;;16.10;;
17398;SDS011;8817;48.170;8.592;2023-06-26T05:57:41;16.83;;;15.52;;
17398;SDS011;8817;48.170;8.592;2023-06-26T06:00:11;17.20;;;15.55;;
17398;SDS011;8817;48.170;8.592;2023-06-26T06:02:39;17.30;;;15.65;;
17398;SDS011;8817;48.170;8.592;2023-06-26T06:05:07;16.27;;;15.07;;
17398;SDS011;8817;48.170;8.592;2023-06-26T06:07:34;16.83;;;15.43;;
17398;SDS011;8817;48.170;8.592;2023-06-26T06:10:02;16.60;;;15.20;;
17398;SDS011;8817;48.170;8.592;2023-06-26T06:12:29;16.02;;;14.82;;
17398;SDS011;8817;48.170;8.592;2023-06-26T06:14:56;16.40;;;15.10;;
17398;SDS011;8817;48.170;8.592;2023-06-26T06:17:24;16.30;;;15.05;;
17398;SDS011;8817;48.170;8.592;2023-06-26T06:19:51;16.15;;;14.70;;
17398;SDS011;8817;48.170;8.592;2023-06-26T06:22:18;15.60;;;14.40;;
17398;SDS011;8817;48.170;8.592;2023-06-26T06:24:45;15.98;;;14.75;;
17398;SDS011;8817;48.170;8.592;2023-06-26T06:27:13;15.93;;;14.73;;
17398;SDS011;8817;48.170;8.592;2023-06-26T06:29:40;15.73;;;14.57;;
17398;SDS011;8817;48.170;8.592;2023-06-26T06:32:07;16.38;;;14.98;;
17398;SDS011;8817;48.170;8.592;2023-06-26T06:34:35;16.00;;;14.77;;
17398;SDS011;8817;48.170;8.592;2023-06-26T06:37:02;15.95;;;14.65;;
17398;SDS011;8817;48.170;8.592;2023-06-26T06:39:29;15.95;;;14.75;;
17398;SDS011;8817;48.170;8.592;2023-06-26T06:41:56;15.85;;;14.65;;
17398;SDS011;8817;48.170;8.592;2023-06-26T06:44:23;16.10;;;14.32;;
17398;SDS011;8817;48.170;8.592;2023-06-26T06:46:50;16.10;;;14.63;;
17398;SDS011;8817;48.170;8.592;2023-06-26T06:49:16;15.52;;;14.30;;
17398;SDS011;8817;48.170;8.592;2023-06-26T06:51:45;15.43;;;14.23;;
17398;SDS011;8817;48.170;8.592;2023-06-26T06:54:11;15.23;;;13.98;;
17398;SDS011;8817;48.170;8.592;2023-06-26T06:56:38;15.23;;;14.02;;
17398;SDS011;8817;48.170;8.592;2023-06-26T06:59:05;14.75;;;13.60;;
17398;SDS011;8817;48.170;8.592;2023-06-26T07:01:32;14.02;;;13.02;;
17398;SDS011;8817;48.170;8.592;2023-06-26T07:03:59;15.05;;;13.65;;
17398;SDS011;8817;48.170;8.592;2023-06-26T07:06:26;14.80;;;13.55;;
17398;SDS011;8817;48.170;8.592;2023-06-26T07:08:54;14.48;;;13.27;;
17398;SDS011;8817;48.170;8.592;2023-06-26T07:11:21;14.38;;;13.18;;
17398;SDS011;8817;48.170;8.592;2023-06-26T07:13:48;14.60;;;13.50;;
17398;SDS011;8817;48.170;8.592;2023-06-26T07:16:14;14.25;;;13.15;;
17398;SDS011;8817;48.170;8.592;2023-06-26T07:18:41;14.43;;;13.27;;
17398;SDS011;8817;48.170;8.592;2023-06-26T07:21:08;14.77;;;13.57;;
17398;SDS011;8817;48.170;8.592;2023-06-26T07:23:35;14.95;;;13.85;;
17398;SDS011;8817;48.170;8.592;2023-06-26T07:26:03;14.93;;;13.63;;
17398;SDS011;8817;48.170;8.592;2023-06-26T07:28:30;14.48;;;13.30;;
17398;SDS011;8817;48.170;8.592;2023-06-26T07:30:57;14.55;;;13.40;;
17398;SDS011;8817;48.170;8.592;2023-06-26T07:33:24;14.70;;;13.40;;
17398;SDS011;8817;48.170;8.592;2023-06-26T07:35:50;15.05;;;13.75;;
17398;SDS011;8817;48.170;8.592;2023-06-26T07:38:17;15.00;;;13.80;;
17398;SDS011;8817;48.170;8.592;2023-06-26T07:40:44;15.00;;;13.80;;
17398;SDS011;8817;48.170;8.592;2023-06-26T07:43:12;14.77;;;13.63;;
17398;SDS011;8817;48.170;8.592;2023-06-26T07:45:39;14.40;;;13.20;;
17398;SDS011;8817;48.170;8.592;2023-06-26T07:48:06;14.05;;;12.98;;
17398;SDS011;8817;48.170;8.592;2023-06-26T07:50:34;14.02;;;12.93;;
17398;SDS011;8817;48.170;8.592;2023-06-26T07:53:01;13.85;;;12.85;;
17398;SDS011;8817;48.170;8.592;2023-06-26T07:55:27;13.77;;;12.68;;
17398;SDS011;8817;48.170;8.592;2023-06-26T07:57:54;13.68;;;12.55;;
17398;SDS011;8817;48.170;8.592;2023-06-26T08:00:23;13.65;;;12.40;;
17398;SDS011;8817;48.170;8.592;2023-06-26T08:02:50;13.65;;;12.55;;
17398;SDS011;8817;48.170;8.592;2023-06-26T08:05:17;13.23;;;12.23;;
17398;SDS011;8817;48.170;8.592;2023-06-26T08:07:43;13.18;;;12.23;;
17398;SDS011;8817;48.170;8.592;2023-06-26T08:10:10;13.02;;;12.07;;
17398;SDS011;8817;48.170;8.592;2023-06-26T08:12:37;13.05;;;12.05;;
17398;SDS011;8817;48.170;8.592;2023-06-26T08:15:08;12.75;;;11.85;;
17398;SDS011;8817;48.170;8.592;2023-06-26T08:17:36;13.18;;;12.18;;
17398;SDS011;8817;48.170;8.592;2023-06-26T08:20:04;13.02;;;12.13;;
17398;SDS011;8817;48.170;8.592;2023-06-26T08:22:33;13.60;;;12.60;;
17398;SDS011;8817;48.170;8.592;2023-06-26T08:25:00;13.02;;;11.95;;
17398;SDS011;8817;48.170;8.592;2023-06-26T08:27:26;13.20;;;12.10;;
17398;SDS011;8817;48.170;8.592;2023-06-26T08:29:53;13.00;;;12.00;;
17398;SDS011;8817;48.170;8.592;2023-06-26T08:32:20;12.85;;;11.95;;
17398;SDS011;8817;48.170;8.592;2023-06-26T08:34:48;13.18;;;12.13;;
17398;SDS011;8817;48.170;8.592;2023-06-26T08:37:15;12.95;;;12.05;;
17398;SDS011;8817;48.170;8.592;2023-06-26T08:39:42;13.05;;;12.05;;
17398;SDS011;8817;48.170;8.592;2023-06-26T08:42:09;12.77;;;11.88;;
17398;SDS011;8817;48.170;8.592;2023-06-26T08:44:36;13.07;;;12.07;;
17398;SDS011;8817;48.170;8.592;2023-06-26T08:47:03;13.25;;;12.30;;
17398;SDS011;8817;48.170;8.592;2023-06-26T08:49:34;13.50;;;12.40;;
17398;SDS011;8817;48.170;8.592;2023-06-26T08:52:10;13.45;;;12.45;;
17398;SDS011;8817;48.170;8.592;2023-06-26T08:54:45;12.60;;;11.70;;
17398;SDS011;8817;48.170;8.592;2023-06-26T08:57:14;12.85;;;11.93;;
17398;SDS011;8817;48.170;8.592;2023-06-26T08:59:44;12.90;;;11.85;;
17398;SDS011;8817;48.170;8.592;2023-06-26T09:02:12;12.85;;;11.95;;
17398;SDS011;8817;48.170;8.592;2023-06-26T09:04:39;13.13;;;12.02;;
17398;SDS011;8817;48.170;8.592;2023-06-26T09:07:08;13.30;;;12.30;;
17398;SDS011;8817;48.170;8.592;2023-06-26T09:09:35;13.02;;;11.98;;
17398;SDS011;8817;48.170;8.592;2023-06-26T09:12:03;13.02;;;12.20;;
17398;SDS011;8817;48.170;8.592;2023-06-26T09:14:30;12.73;;;11.82;;
17398;SDS011;8817;48.170;8.592;2023-06-26T09:16:57;12.73;;;11.82;;
17398;SDS011;8817;48.170;8.592;2023-06-26T09:19:24;13.02;;;12.13;;
17398;SDS011;8817;48.170;8.592;2023-06-26T09:21:52;13.27;;;12.20;;
17398;SDS011;8817;48.170;8.592;2023-06-26T09:24:21;13.23;;;12.13;;
17398;SDS011;8817;48.170;8.592;2023-06-26T09:26:49;13.88;;;12.38;;
17398;SDS011;8817;48.170;8.592;2023-06-26T09:29:17;12.88;;;11.88;;
17398;SDS011;8817;48.170;8.592;2023-06-26T09:31:44;12.95;;;11.98;;
17398;SDS011;8817;48.170;8.592;2023-06-26T09:34:11;12.75;;;11.75;;
17398;SDS011;8817;48.170;8.592;2023-06-26T09:36:37;12.95;;;11.95;;
17398;SDS011;8817;48.170;8.592;2023-06-26T09:39:08;13.20;;;12.13;;
17398;SDS011;8817;48.170;8.592;2023-06-26T09:41:38;13.13;;;12.13;;
17398;SDS011;8817;48.170;8.592;2023-06-26T09:44:06;12.90;;;11.90;;
17398;SDS011;8817;48.170;8.592;2023-06-26T09:46:33;13.07;;;11.98;;
17398;SDS011;8817;48.170;8.592;2023-06-26T09:49:01;12.73;;;11.73;;
17398;SDS011;8817;48.170;8.592;2023-06-26T09:51:29;13.13;;;11.90;;
17398;SDS011;8817;48.170;8.592;2023-06-26T09:53:57;13.52;;;12.43;;
17398;SDS011;8817;48.170;8.592;2023-06-26T09:56:24;12.82;;;11.93;;
17398;SDS011;8817;48.170;8.592;2023-06-26T09:58:53;12.90;;;11.90;;
17398;SDS011;8817;48.170;8.592;2023-06-26T10:01:22;13.20;;;12.20;;
17398;SDS011;8817;48.170;8.592;2023-06-26T10:03:51;13.32;;;12.32;;
17398;SDS011;8817;48.170;8.592;2023-06-26T10:06:19;13.10;;;12.10;;
17398;SDS011;8817;48.170;8.592;2023-06-26T10:08:53;13.25;;;12.05;;
17398;SDS011;8817;48.170;8.592;2023-06-26T10:11:21;13.15;;;12.13;;
17398;SDS011;8817;48.170;8.592;2023-06-26T10:13:49;13.25;;;12.25;;
17398;SDS011;8817;48.170;8.592;2023-06-26T10:16:21;12.35;;;11.45;;
17398;SDS011;8817;48.170;8.592;2023-06-26T10:18:52;12.52;;;11.65;;
17398;SDS011;8817;48.170;8.592;2023-06-26T10:21:22;12.90;;;11.90;;
17398;SDS011;8817;48.170;8.592;2023-06-26T10:23:52;12.60;;;11.50;;
17398;SDS011;8817;48.170;8.592;2023-06-26T10:26:21;13.07;;;11.98;;
17398;SDS011;8817;48.170;8.592;2023-06-26T10:28:48;12.57;;;11.57;;
17398;SDS011;8817;48.170;8.592;2023-06-26T10:31:19;12.80;;;11.80;;
17398;SDS011;8817;48.170;8.592;2023-06-26T10:33:49;14.20;;;12.85;;
17398;SDS011;8817;48.170;8.592;2023-06-26T10:36:17;14.07;;;12.77;;
17398;SDS011;8817;48.170;8.592;2023-06-26T10:38:49;13.43;;;12.32;;
17398;SDS011;8817;48.170;8.592;2023-06-26T10:41:19;13.02;;;11.93;;
17398;SDS011;8817;48.170;8.592;2023-06-26T10:43:48;12.48;;;11.48;;
17398;SDS011;8817;48.170;8.592;2023-06-26T10:46:17;13.52;;;12.43;;
17398;SDS011;8817;48.170;8.592;2023-06-26T10:48:57;13.23;;;12.13;;
17398;SDS011;8817;48.170;8.592;2023-06-26T10:51:25;13.73;;;12.43;;
17398;SDS011;8817;48.170;8.592;2023-06-26T10:53:56;13.73;;;12.43;;
17398;SDS011;8817;48.170;8.592;2023-06-26T10:59:16;13.48;;;12.38;;
17398;SDS011;8817;48.170;8.592;2023-06-26T11:01:45;13.02;;;11.93;;
17398;SDS011;8817;48.170;8.592;2023-06-26T11:04:13;13.18;;;12.18;;
17398;SDS011;8817;48.170;8.592;2023-06-26T11:06:41;13.38;;;12.30;;
17398;SDS011;8817;48.170;8.592;2023-06-26T11:09:14;13.98;;;12.82;;
17398;SDS011;8817;48.170;8.592;2023-06-26T11:11:56;13.20;;;12.20;;
17398;SDS011;8817;48.170;8.592;2023-06-26T11:14:27;12.98;;;11.95;;
17398;SDS011;8817;48.170;8.592;2023-06-26T11:16:56;13.10;;;12.00;;
17398;SDS011;8817;48.170;8.592;2023-06-26T11:19:24;12.90;;;11.90;;
17398;SDS011;8817;48.170;8.592;2023-06-26T11:21:55;12.95;;;11.85;;
17398;SDS011;8817;48.170;8.592;2023-06-26T11:24:25;13.07;;;11.98;;
17398;SDS011;8817;48.170;8.592;2023-06-26T11:26:53;13.63;;;12.43;;
17398;SDS011;8817;48.170;8.592;2023-06-26T11:29:19;13.18;;;12.07;;
17398;SDS011;8817;48.170;8.592;2023-06-26T11:31:48;13.10;;;11.85;;
17398;SDS011;8817;48.170;8.592;2023-06-26T11:34:29;13.00;;;12.00;;
17398;SDS011;8817;48.170;8.592;2023-06-26T11:36:56;13.60;;;12.13;;
17398;SDS011;8817;48.170;8.592;2023-06-26T11:39:26;13.43;;;12.32;;
17398;SDS011;8817;48.170;8.592;2023-06-26T11:41:53;13.65;;;12.55;;
17398;SDS011;8817;48.170;8.592;2023-06-26T11:44:20;13.20;;;12.00;;
17398;SDS011;8817;48.170;8.592;2023-06-26T11:46:47;12.85;;;11.73;;
17398;SDS011;8817;48.170;8.592;2023-06-26T11:49:21;14.20;;;12.77;;
17398;SDS011;8817;48.170;8.592;2023-06-26T11:51:50;13.32;;;11.98;;
17398;SDS011;8817;48.170;8.592;2023-06-26T11:54:23;12.85;;;11.85;;
17398;SDS011;8817;48.170;8.592;2023-06-26T11:56:54;13.00;;;11.95;;
17398;SDS011;8817;48.170;8.592;2023-06-26T11:59:22;13.68;;;12.40;;
17398;SDS011;8817;48.170;8.592;2023-06-26T12:01:50;13.55;;;12.45;;
17398;SDS011;8817;48.170;8.592;2023-06-26T12:04:18;13.98;;;12.77;;
17398;SDS011;8817;48.170;8.592;2023-06-26T12:06:48;13.82;;;12.40;;
17398;SDS011;8817;48.170;8.592;2023-06-26T12:09:22;12.93;;;11.93;;
17398;SDS011;8817;48.170;8.592;2023-06-26T12:11:51;12.70;;;11.65;;
17398;SDS011;8817;48.170;8.592;2023-06-26T12:14:20;12.68;;;11.68;;
17398;SDS011;8817;48.170;8.592;2023-06-26T12:16:48;13.05;;;12.05;;
17398;SDS011;8817;48.170;8.592;2023-06-26T12:19:15;13.50;;;12.40;;
17398;SDS011;8817;48.170;8.592;2023-06-26T12:21:47;12.45;;;11.45;;
17398;SDS011;8817;48.170;8.592;2023-06-26T12:24:18;13.60;;;12.40;;
17398;SDS011;8817;48.170;8.592;2023-06-26T12:26:47;12.80;;;11.60;;
17398;SDS011;8817;48.170;8.592;2023-06-26T12:29:19;13.82;;;12.50;;
17398;SDS011;8817;48.170;8.592;2023-06-26T12:31:48;13.52;;;12.43;;
17398;SDS011;8817;48.170;8.592;2023-06-26T12:34:18;12.80;;;11.80;;
17398;SDS011;8817;48.170;8.592;2023-06-26T12:36:47;13.63;;;12.52;;
17398;SDS011;8817;48.170;8.592;2023-06-26T12:39:16;12.45;;;11.55;;
17398;SDS011;8817;48.170;8.592;2023-06-26T12:41:44;13.32;;;12.23;;
17398;SDS011;8817;48.170;8.592;2023-06-26T12:44:18;13.52;;;12.43;;
17398;SDS011;8817;48.170;8.592;2023-06-26T12:46:46;13.50;;;12.38;;
17398;SDS011;8817;48.170;8.592;2023-06-26T12:49:14;13.40;;;12.20;;
17398;SDS011;8817;48.170;8.592;2023-06-26T12:51:41;13.40;;;12.30;;
17398;SDS011;8817;48.170;8.592;2023-06-26T12:54:10;13.75;;;12.55;;
17398;SDS011;8817;48.170;8.592;2023-06-26T12:56:37;13.27;;;12.18;;
17398;SDS011;8817;48.170;8.592;2023-06-26T12:59:04;13.07;;;12.02;;
17398;SDS011;8817;48.170;8.592;2023-06-26T13:01:30;13.13;;;11.93;;
17398;SDS011;8817;48.170;8.592;2023-06-26T13:03:57;13.57;;;12.38;;
17398;SDS011;8817;48.170;8.592;2023-06-26T13:06:24;13.20;;;12.20;;
17398;SDS011;8817;48.170;8.592;2023-06-26T13:08:51;12.98;;;11.95;;
17398;SDS011;8817;48.170;8.592;2023-06-26T13:11:20;12.93;;;11.93;;
17398;SDS011;8817;48.170;8.592;2023-06-26T13:13:47;13.02;;;11.93;;
17398;SDS011;8817;48.170;8.592;2023-06-26T13:16:14;12.88;;;11.88;;
17398;SDS011;8817;48.170;8.592;2023-06-26T13:18:41;13.45;;;12.23;;
17398;SDS011;8817;48.170;8.592;2023-06-26T13:21:08;12.88;;;11.88;;
17398;SDS011;8817;48.170;8.592;2023-06-26T13:23:35;13.93;;;12.55;;
17398;SDS011;8817;48.170;8.592;2023-06-26T13:26:02;12.63;;;11.63;;
17398;SDS011;8817;48.170;8.592;2023-06-26T13:28:30;13.05;;;11.95;;
17398;SDS011;8817;48.170;8.592;2023-06-26T13:30:57;12.88;;;11.77;;
17398;SDS011;8817;48.170;8.592;2023-06-26T13:33:23;12.55;;;11.50;;
17398;SDS011;8817;48.170;8.592;2023-06-26T13:35:50;13.05;;;11.85;;
17398;SDS011;8817;48.170;8.592;2023-06-26T13:38:18;12.63;;;11.63;;
17398;SDS011;8817;48.170;8.592;2023-06-26T13:40:49;12.93;;;11.65;;
17398;SDS011;8817;48.170;8.592;2023-06-26T13:43:16;12.60;;;11.60;;
17398;SDS011;8817;48.170;8.592;2023-06-26T13:45:44;12.40;;;11.20;;
17398;SDS011;8817;48.170;8.592;2023-06-26T13:48:11;12.70;;;11.60;;
17398;SDS011;8817;48.170;8.592;2023-06-26T13:50:38;12.57;;;11.48;;
17398;SDS011;8817;48.170;8.592;2023-06-26T13:53:05;12.73;;;11.68;;
17398;SDS011;8817;48.170;8.592;2023-06-26T13:55:32;12.40;;;11.40;;
17398;SDS011;8817;48.170;8.592;2023-06-26T13:58:00;12.80;;;11.65;;
17398;SDS011;8817;48.170;8.592;2023-06-26T14:00:29;12.82;;;11.68;;
17398;SDS011;8817;48.170;8.592;2023-06-26T14:02:57;12.23;;;11.18;;
17398;SDS011;8817;48.170;8.592;2023-06-26T14:05:24;12.77;;;11.68;;
17398;SDS011;8817;48.170;8.592;2023-06-26T14:07:51;12.00;;;11.07;;
17398;SDS011;8817;48.170;8.592;2023-06-26T14:10:19;12.70;;;11.40;;
17398;SDS011;8817;48.170;8.592;2023-06-26T14:12:46;12.30;;;11.38;;
17398;SDS011;8817;48.170;8.592;2023-06-26T14:15:13;12.25;;;11.05;;
17398;SDS011;8817;48.170;8.592;2023-06-26T14:17:40;12.68;;;11.57;;
17398;SDS011;8817;48.170;8.592;2023-06-26T14:20:09;12.02;;;11.13;;
17398;SDS011;8817;48.170;8.592;2023-06-26T14:22:38;12.43;;;11.43;;
17398;SDS011;8817;48.170;8.592;2023-06-26T14:25:05;12.65;;;11.30;;
17398;SDS011;8817;48.170;8.592;2023-06-26T14:27:32;11.82;;;10.93;;
17398;SDS011;8817;48.170;8.592;2023-06-26T14:29:59;12.48;;;11.38;;
17398;SDS011;8817;48.170;8.592;2023-06-26T14:32:26;12.43;;;11.10;;
17398;SDS011;8817;48.170;8.592;2023-06-26T14:34:53;11.88;;;10.98;;
17398;SDS011;8817;48.170;8.592;2023-06-26T14:37:21;11.70;;;10.80;;
17398;SDS011;8817;48.170;8.592;2023-06-26T14:39:49;11.52;;;10.63;;